createdAt,value
2018-12-06T00:00:26.713Z,0.40
2018-12-06T00:02:55.364Z,0.20
2018-12-06T00:05:24.116Z,0.40
2018-12-06T00:08:04.336Z,0.40
2018-12-06T00:10:34.848Z,0.50
2018-12-06T00:13:03.567Z,0.93
2018-12-06T00:15:32.203Z,0.80
2018-12-06T00:18:01.322Z,0.43
2018-12-06T00:20:30.833Z,0.33
2018-12-06T00:22:59.533Z,0.30
2018-12-06T00:25:29.028Z,0.70
2018-12-06T00:27:58.044Z,0.37
2018-12-06T00:30:32.309Z,0.63
2018-12-06T00:33:00.921Z,0.50
2018-12-06T00:35:29.735Z,0.65
2018-12-06T00:37:59.260Z,0.53
2018-12-06T00:40:28.064Z,0.77
2018-12-06T00:42:56.619Z,0.40
2018-12-06T00:45:25.368Z,0.20
2018-12-06T00:47:54.252Z,0.90
2018-12-06T00:50:22.836Z,0.57
2018-12-06T00:52:51.825Z,0.50
2018-12-06T00:55:20.296Z,0.47
2018-12-06T00:57:49.426Z,0.40
2018-12-06T01:00:17.867Z,0.30
2018-12-06T01:02:47.193Z,0.33
2018-12-06T01:05:15.856Z,0.40
2018-12-06T01:07:44.706Z,0.60
2018-12-06T01:10:13.772Z,0.70
2018-12-06T01:12:42.555Z,0.53
2018-12-06T01:15:11.160Z,0.70
2018-12-06T01:17:39.892Z,0.20
2018-12-06T01:20:08.761Z,0.40
2018-12-06T01:22:37.323Z,0.50
2018-12-06T01:25:06.749Z,0.60
2018-12-06T01:27:35.356Z,0.60
2018-12-06T01:30:04.812Z,1.23
2018-12-06T01:32:33.385Z,0.40
2018-12-06T01:35:02.005Z,0.40
2018-12-06T01:37:30.719Z,0.87
2018-12-06T01:39:59.269Z,0.57
2018-12-06T01:42:28.589Z,0.45
2018-12-06T01:44:57.404Z,0.40
2018-12-06T01:47:25.905Z,0.47
2018-12-06T01:49:54.422Z,0.37
2018-12-06T01:52:23.088Z,0.23
2018-12-06T01:54:51.683Z,0.53
2018-12-06T01:57:20.393Z,0.70
2018-12-06T01:59:49.154Z,0.60
2018-12-06T02:02:50.856Z,0.60
2018-12-06T02:05:19.651Z,0.63
2018-12-06T02:07:49.170Z,0.30
2018-12-06T02:10:17.728Z,0.50
2018-12-06T02:12:46.219Z,0.53
2018-12-06T02:15:15.373Z,0.30
2018-12-06T02:17:44.055Z,0.73
2018-12-06T02:20:12.784Z,0.50
2018-12-06T02:22:42.538Z,0.60
2018-12-06T02:25:11.137Z,0.33
2018-12-06T02:27:40.444Z,0.70
2018-12-06T02:30:09.206Z,0.60
2018-12-06T02:32:38.020Z,0.87
2018-12-06T02:35:06.584Z,0.60
2018-12-06T02:37:34.990Z,0.90
2018-12-06T02:40:04.571Z,0.70
2018-12-06T02:42:33.395Z,0.80
2018-12-06T02:45:02.169Z,0.80
2018-12-06T02:47:30.737Z,0.63
2018-12-06T02:50:00.092Z,0.60
2018-12-06T02:52:28.788Z,0.47
2018-12-06T02:54:57.374Z,0.77
2018-12-06T02:57:26.306Z,0.90
2018-12-06T02:59:55.852Z,0.82
2018-12-06T03:02:24.668Z,0.87
2018-12-06T03:04:53.167Z,0.97
2018-12-06T03:07:21.668Z,0.53
2018-12-06T03:09:50.272Z,0.83
2018-12-06T03:12:18.783Z,1.30
2018-12-06T03:14:47.284Z,0.53
2018-12-06T03:17:17.953Z,0.73
2018-12-06T03:19:47.733Z,0.90
2018-12-06T03:22:16.707Z,0.90
2018-12-06T03:24:45.268Z,1.00
2018-12-06T03:27:14.021Z,0.40
2018-12-06T03:29:42.794Z,0.70
2018-12-06T03:32:11.352Z,0.77
2018-12-06T03:34:40.035Z,0.97
2018-12-06T03:37:08.801Z,1.03
2018-12-06T03:39:37.387Z,0.80
2018-12-06T03:42:05.836Z,1.27
2018-12-06T03:44:36.186Z,0.70
2018-12-06T03:47:05.039Z,0.50
2018-12-06T03:49:33.892Z,0.93
2018-12-06T03:52:02.653Z,1.10
2018-12-06T03:54:31.397Z,1.27
2018-12-06T03:57:00.164Z,0.60
2018-12-06T03:59:29.540Z,1.02
2018-12-06T04:01:58.309Z,0.93
2018-12-06T04:04:27.138Z,0.83
2018-12-06T04:06:55.901Z,1.30
2018-12-06T04:09:24.596Z,0.50
2018-12-06T04:11:53.293Z,0.83
2018-12-06T04:14:21.989Z,0.80
2018-12-06T04:16:50.839Z,1.00
2018-12-06T04:19:19.708Z,2.07
2018-12-06T04:21:48.493Z,0.90
2018-12-06T04:24:17.296Z,0.63
2018-12-06T04:26:46.061Z,0.90
2018-12-06T04:29:14.674Z,1.40
2018-12-06T04:31:43.276Z,1.07
2018-12-06T04:34:13.904Z,1.57
2018-12-06T04:36:42.465Z,0.93
2018-12-06T04:39:11.063Z,1.13
2018-12-06T04:41:39.881Z,0.57
2018-12-06T04:44:08.440Z,0.97
2018-12-06T04:46:38.132Z,1.00
2018-12-06T04:49:07.025Z,2.03
2018-12-06T04:51:36.051Z,3.40
2018-12-06T04:54:04.756Z,4.50
2018-12-06T04:56:33.589Z,3.13
2018-12-06T04:59:02.350Z,3.50
2018-12-06T05:01:30.904Z,3.60
2018-12-06T05:03:59.881Z,3.80
2018-12-06T05:06:28.640Z,2.17
2018-12-06T05:08:57.146Z,2.43
2018-12-06T05:11:25.760Z,8.50
2018-12-06T05:13:54.482Z,12.13
2018-12-06T05:16:23.081Z,14.97
2018-12-06T05:18:51.581Z,5.57
2018-12-06T05:21:20.337Z,5.43
2018-12-06T05:23:49.096Z,6.33
2018-12-06T05:26:17.719Z,3.27
2018-12-06T05:28:46.136Z,2.80
2018-12-06T05:31:15.781Z,4.47
2018-12-06T05:33:44.565Z,2.87
2018-12-06T05:36:13.281Z,6.23
2018-12-06T05:38:42.117Z,16.10
2018-12-06T05:41:10.885Z,3.93
2018-12-06T05:43:39.604Z,22.97
2018-12-06T05:46:08.375Z,10.82
2018-12-06T05:48:36.980Z,10.47
2018-12-06T05:51:05.644Z,3.10
2018-12-06T05:53:34.247Z,1.70
2018-12-06T05:56:03.065Z,2.40
2018-12-06T05:58:31.833Z,1.92
2018-12-06T06:01:00.683Z,1.87
2018-12-06T06:03:29.451Z,1.63
2018-12-06T06:05:58.129Z,1.60
2018-12-06T06:08:27.083Z,1.80
2018-12-06T06:10:56.484Z,1.30
2018-12-06T06:13:25.184Z,1.53
2018-12-06T06:15:53.740Z,1.93
2018-12-06T06:18:22.345Z,2.13
2018-12-06T06:20:50.876Z,2.00
2018-12-06T06:23:19.596Z,1.80
2018-12-06T06:25:48.425Z,2.17
2018-12-06T06:28:17.213Z,1.97
2018-12-06T06:30:45.956Z,1.90
2018-12-06T06:33:14.555Z,1.47
2018-12-06T06:35:43.278Z,1.37
2018-12-06T06:38:11.977Z,1.55
2018-12-06T06:40:40.738Z,1.60
2018-12-06T06:43:09.496Z,1.80
2018-12-06T06:45:38.340Z,1.85
2018-12-06T06:48:06.864Z,1.60
2018-12-06T06:50:35.504Z,1.57
2018-12-06T06:53:04.336Z,1.53
2018-12-06T06:55:33.023Z,1.54
2018-12-06T06:58:01.623Z,2.10
2018-12-06T07:00:30.188Z,1.97
2018-12-06T07:02:58.797Z,1.80
2018-12-06T07:05:28.584Z,1.50
2018-12-06T07:07:57.347Z,1.03
2018-12-06T07:10:26.176Z,1.40
2018-12-06T07:12:54.934Z,1.67
2018-12-06T07:15:23.423Z,1.50
2018-12-06T07:17:52.085Z,1.60
2018-12-06T07:20:20.803Z,1.57
2018-12-06T07:22:49.280Z,1.87
2018-12-06T07:25:17.763Z,1.43
2018-12-06T07:27:46.429Z,1.70
2018-12-06T07:30:15.256Z,1.07
2018-12-06T07:32:44.089Z,1.70
2018-12-06T07:35:12.908Z,1.90
2018-12-06T07:37:41.500Z,6.60
2018-12-06T07:40:10.156Z,8.87
2018-12-06T07:42:39.075Z,6.50
2018-12-06T07:45:08.018Z,2.60
2018-12-06T07:47:36.803Z,2.00
2018-12-06T07:50:06.237Z,6.40
2018-12-06T07:52:35.408Z,6.00
2018-12-06T07:55:04.511Z,2.70
2018-12-06T07:57:33.277Z,6.73
2018-12-06T08:00:02.082Z,5.60
2018-12-06T08:02:31.069Z,2.53
2018-12-06T08:04:59.903Z,3.77
2018-12-06T08:07:29.834Z,8.67
2018-12-06T08:09:59.063Z,21.03
2018-12-06T08:12:27.696Z,5.13
2018-12-06T08:14:56.464Z,3.90
2018-12-06T08:17:25.195Z,2.67
2018-12-06T08:19:53.607Z,3.10
2018-12-06T08:22:22.228Z,2.53
2018-12-06T08:24:51.088Z,3.50
2018-12-06T08:27:19.700Z,4.20
2018-12-06T08:29:48.304Z,3.53
2018-12-06T08:32:16.893Z,2.43
2018-12-06T08:34:45.573Z,1.87
2018-12-06T08:37:14.076Z,2.97
2018-12-06T08:39:42.571Z,2.53
2018-12-06T08:42:11.377Z,3.80
2018-12-06T08:44:40.199Z,4.27
2018-12-06T08:47:08.926Z,3.47
2018-12-06T08:49:37.751Z,5.92
2018-12-06T08:52:06.572Z,11.03
2018-12-06T08:54:35.190Z,3.93
2018-12-06T08:57:03.986Z,7.03
2018-12-06T08:59:32.836Z,4.57
2018-12-06T09:02:01.600Z,5.10
2018-12-06T09:04:30.383Z,3.60
2018-12-06T09:06:59.244Z,3.70
2018-12-06T09:09:27.955Z,5.07
2018-12-06T09:11:56.745Z,2.83
2018-12-06T09:14:25.556Z,3.57
2018-12-06T09:16:55.265Z,3.50
2018-12-06T09:19:24.085Z,3.13
2018-12-06T09:21:52.885Z,2.83
2018-12-06T09:24:21.463Z,3.67
2018-12-06T09:26:50.145Z,3.63
2018-12-06T09:29:18.948Z,3.43
2018-12-06T09:31:47.519Z,4.13
2018-12-06T09:34:16.271Z,3.03
2018-12-06T09:36:45.108Z,3.03
2018-12-06T09:39:13.697Z,3.00
2018-12-06T09:41:42.241Z,2.40
2018-12-06T09:44:11.010Z,3.00
2018-12-06T09:46:39.859Z,2.63
2018-12-06T09:49:08.691Z,3.07
2018-12-06T09:51:37.480Z,2.40
2018-12-06T09:54:06.300Z,2.90
2018-12-06T09:56:35.101Z,4.20
2018-12-06T09:59:03.660Z,3.70
2018-12-06T10:01:32.413Z,4.73
2018-12-06T10:04:01.208Z,4.90
2018-12-06T10:06:30.027Z,8.20
2018-12-06T10:08:59.033Z,7.83
2018-12-06T10:11:27.838Z,6.40
2018-12-06T10:13:56.556Z,4.43
2018-12-06T10:16:26.300Z,3.37
2018-12-06T10:18:55.383Z,3.40
2018-12-06T10:21:23.936Z,3.73
2018-12-06T10:23:52.675Z,3.67
2018-12-06T10:26:21.513Z,3.30
2018-12-06T10:28:50.313Z,3.27
2018-12-06T10:31:19.077Z,3.90
2018-12-06T10:33:47.865Z,3.50
2018-12-06T10:36:16.700Z,3.23
2018-12-06T10:38:45.427Z,3.60
2018-12-06T10:41:14.313Z,3.50
2018-12-06T10:43:43.076Z,4.07
2018-12-06T10:46:11.856Z,3.90
2018-12-06T10:48:40.712Z,3.30
2018-12-06T10:51:21.042Z,4.25
2018-12-06T10:53:49.744Z,3.67
2018-12-06T10:56:18.550Z,4.50
2018-12-06T10:58:47.060Z,4.90
2018-12-06T11:01:18.367Z,4.33
2018-12-06T11:03:52.640Z,5.10
2018-12-06T11:06:21.224Z,3.77
2018-12-06T11:08:49.843Z,4.17
2018-12-06T11:11:18.573Z,3.53
2018-12-06T11:13:47.320Z,4.20
2018-12-06T11:16:15.916Z,3.47
2018-12-06T11:18:44.371Z,4.20
2018-12-06T11:21:13.133Z,3.30
2018-12-06T11:23:41.816Z,4.33
2018-12-06T11:26:10.520Z,5.00
2018-12-06T11:28:39.160Z,4.43
2018-12-06T11:31:07.907Z,4.10
2018-12-06T11:33:36.657Z,4.17
2018-12-06T11:36:05.162Z,4.25
2018-12-06T11:38:33.805Z,4.47
2018-12-06T11:41:02.609Z,4.83
2018-12-06T11:43:31.377Z,4.20
2018-12-06T11:46:00.051Z,5.10
2018-12-06T11:48:28.684Z,4.60
2018-12-06T11:50:57.279Z,3.83
2018-12-06T11:53:25.947Z,4.30
2018-12-06T11:55:55.529Z,3.70
2018-12-06T11:58:25.012Z,3.97
2018-12-06T12:00:53.687Z,4.30
2018-12-06T12:06:05.475Z,3.53
2018-12-06T12:08:34.249Z,4.23
2018-12-06T12:11:02.852Z,4.23
2018-12-06T12:13:31.606Z,4.00
2018-12-06T12:16:01.792Z,3.75
2018-12-06T12:18:31.525Z,4.07
2018-12-06T12:21:00.064Z,3.63
2018-12-06T12:23:28.476Z,3.97
2018-12-06T12:25:56.888Z,3.60
2018-12-06T12:28:25.507Z,3.70
2018-12-06T12:30:55.768Z,3.70
2018-12-06T12:33:24.977Z,2.90
2018-12-06T12:35:53.660Z,3.40
2018-12-06T12:38:22.352Z,3.30
2018-12-06T12:40:51.071Z,4.00
2018-12-06T12:43:20.880Z,4.67
2018-12-06T12:45:49.380Z,3.60
2018-12-06T12:48:18.049Z,4.20
2018-12-06T12:50:46.920Z,3.67
2018-12-06T12:53:16.664Z,4.10
2018-12-06T12:55:45.588Z,3.47
2018-12-06T12:58:14.102Z,4.50
2018-12-06T13:00:42.581Z,4.23
2018-12-06T13:03:11.340Z,3.30
2018-12-06T13:05:40.664Z,4.10
2018-12-06T13:08:09.357Z,3.47
2018-12-06T13:10:38.232Z,4.13
2018-12-06T13:13:07.073Z,3.67
2018-12-06T13:15:36.965Z,3.83
2018-12-06T13:18:05.515Z,4.53
2018-12-06T13:20:34.273Z,3.53
2018-12-06T13:23:04.233Z,3.50
2018-12-06T13:25:32.796Z,3.43
2018-12-06T13:28:01.218Z,3.97
2018-12-06T13:30:29.702Z,3.50
2018-12-06T13:32:58.533Z,3.27
2018-12-06T13:35:27.235Z,3.60
2018-12-06T13:37:56.990Z,3.47
2018-12-06T13:40:25.772Z,4.00
2018-12-06T13:42:54.604Z,3.67
2018-12-06T13:45:24.032Z,3.73
2018-12-06T13:47:52.837Z,3.77
2018-12-06T13:50:21.590Z,3.23
2018-12-06T13:52:50.183Z,3.50
2018-12-06T13:55:18.644Z,3.57
2018-12-06T13:57:47.097Z,3.70
2018-12-06T14:00:15.873Z,4.33
2018-12-06T14:02:44.729Z,3.70
2018-12-06T14:05:13.561Z,3.33
2018-12-06T14:07:42.111Z,3.53
2018-12-06T14:10:10.713Z,4.33
2018-12-06T14:12:39.556Z,4.23
2018-12-06T14:15:08.384Z,4.20
2018-12-06T14:17:36.916Z,3.83
2018-12-06T14:20:07.220Z,4.83
2018-12-06T14:22:37.037Z,3.73
2018-12-06T14:25:05.893Z,4.00
2018-12-06T14:27:34.637Z,4.33
2018-12-06T14:30:03.576Z,4.20
2018-12-06T14:32:32.309Z,4.70
2018-12-06T14:35:01.157Z,4.30
2018-12-06T14:37:29.803Z,4.20
2018-12-06T14:39:58.713Z,4.60
2018-12-06T14:42:27.601Z,4.53
2018-12-06T14:44:56.284Z,4.80
2018-12-06T14:47:25.049Z,6.53
2018-12-06T14:49:53.636Z,8.80
2018-12-06T14:52:23.049Z,12.73
2018-12-06T14:54:51.523Z,12.97
2018-12-06T14:57:20.165Z,12.03
2018-12-06T14:59:48.960Z,10.03
2018-12-06T15:02:17.728Z,6.73
2018-12-06T15:04:46.561Z,8.00
2018-12-06T15:07:15.276Z,5.85
2018-12-06T15:09:43.828Z,5.27
2018-12-06T15:12:12.581Z,5.40
2018-12-06T15:14:41.268Z,5.40
2018-12-06T15:17:09.843Z,5.30
2018-12-06T15:19:38.520Z,5.20
2018-12-06T15:22:07.293Z,5.80
2018-12-06T15:24:36.057Z,5.03
2018-12-06T15:27:04.728Z,5.90
2018-12-06T15:29:33.341Z,6.57
2018-12-06T15:32:02.126Z,6.73
2018-12-06T15:34:30.824Z,6.50
2018-12-06T15:36:59.616Z,5.73
2018-12-06T15:39:28.393Z,6.33
2018-12-06T15:41:57.193Z,5.07
2018-12-06T15:44:26.020Z,6.03
2018-12-06T15:46:55.012Z,6.23
2018-12-06T15:49:23.780Z,4.93
2018-12-06T15:51:52.545Z,4.77
2018-12-06T15:54:21.077Z,4.47
2018-12-06T15:56:49.745Z,5.33
2018-12-06T15:59:18.544Z,4.47
2018-12-06T16:01:47.305Z,5.03
2018-12-06T16:04:17.137Z,3.83
2018-12-06T16:06:45.923Z,4.07
2018-12-06T16:09:14.799Z,4.70
2018-12-06T16:11:43.522Z,5.00
2018-12-06T16:14:12.358Z,4.83
2018-12-06T16:16:41.109Z,4.13
2018-12-06T16:19:10.056Z,4.27
2018-12-06T16:21:38.614Z,3.93
2018-12-06T16:24:07.288Z,3.90
2018-12-06T16:26:36.076Z,4.00
2018-12-06T16:29:04.900Z,3.43
2018-12-06T16:31:33.652Z,3.30
2018-12-06T16:34:02.796Z,4.20
2018-12-06T16:36:31.353Z,3.90
2018-12-06T16:39:00.030Z,3.33
2018-12-06T16:41:28.780Z,3.23
2018-12-06T16:43:57.343Z,3.43
2018-12-06T16:46:26.068Z,3.00
2018-12-06T16:48:55.472Z,3.57
2018-12-06T16:51:24.226Z,3.33
2018-12-06T16:53:52.796Z,3.63
2018-12-06T16:56:21.512Z,3.90
2018-12-06T16:58:50.080Z,3.80
2018-12-06T17:01:18.737Z,3.83
2018-12-06T17:03:48.343Z,3.23
2018-12-06T17:06:16.975Z,3.50
2018-12-06T17:08:45.758Z,4.03
2018-12-06T17:11:14.789Z,3.30
2018-12-06T17:13:43.555Z,3.23
2018-12-06T17:16:12.240Z,3.70
2018-12-06T17:18:41.004Z,3.40
2018-12-06T17:21:09.557Z,3.43
2018-12-06T17:23:38.288Z,3.67
2018-12-06T17:26:07.100Z,4.10
2018-12-06T17:28:35.660Z,3.50
2018-12-06T17:31:04.408Z,4.10
2018-12-06T17:33:33.292Z,4.13
2018-12-06T17:36:02.073Z,4.40
2018-12-06T17:38:31.196Z,4.77
2018-12-06T17:40:59.893Z,4.83
2018-12-06T17:43:28.664Z,3.50
2018-12-06T17:45:57.441Z,4.37
2018-12-06T17:48:27.168Z,3.87
2018-12-06T17:50:56.621Z,4.17
2018-12-06T17:53:25.452Z,4.47
2018-12-06T17:55:54.571Z,4.43
2018-12-06T17:58:23.349Z,4.03
2018-12-06T18:00:52.163Z,4.50
2018-12-06T18:03:20.768Z,9.47
2018-12-06T18:05:49.500Z,6.57
2018-12-06T18:08:18.465Z,6.00
2018-12-06T18:10:47.221Z,4.77
2018-12-06T18:13:15.811Z,4.77
2018-12-06T18:15:45.033Z,4.40
2018-12-06T18:18:13.676Z,4.77
2018-12-06T18:20:42.432Z,4.63
2018-12-06T18:23:11.252Z,5.07
2018-12-06T18:25:40.090Z,5.97
2018-12-06T18:28:08.848Z,6.30
2018-12-06T18:30:37.432Z,6.47
2018-12-06T18:33:06.071Z,6.20
2018-12-06T18:35:34.841Z,6.43
2018-12-06T18:38:03.696Z,6.80
2018-12-06T18:40:32.533Z,4.73
2018-12-06T18:43:01.392Z,5.27
2018-12-06T18:45:30.454Z,5.53
2018-12-06T18:47:59.428Z,5.13
2018-12-06T18:50:28.854Z,4.92
2018-12-06T18:52:58.352Z,4.50
2018-12-06T18:55:28.736Z,4.70
2018-12-06T18:57:57.672Z,5.67
2018-12-06T19:00:26.508Z,5.27
2018-12-06T19:02:55.270Z,5.28
2018-12-06T19:05:24.060Z,7.03
2018-12-06T19:07:52.683Z,5.40
2018-12-06T19:10:21.288Z,5.20
2018-12-06T19:12:50.052Z,6.10
2018-12-06T19:15:18.721Z,5.80
2018-12-06T19:17:47.161Z,7.67
2018-12-06T19:20:15.679Z,6.43
2018-12-06T19:22:44.406Z,5.17
2018-12-06T19:25:12.915Z,6.70
2018-12-06T19:27:41.449Z,5.85
2018-12-06T19:30:10.464Z,5.77
2018-12-06T19:32:39.044Z,7.00
2018-12-06T19:35:07.788Z,6.60
2018-12-06T19:37:36.580Z,5.83
2018-12-06T19:40:06.328Z,5.53
2018-12-06T19:42:38.683Z,5.40
2018-12-06T19:45:06.059Z,5.23
2018-12-06T19:47:34.665Z,6.47
2018-12-06T19:50:03.716Z,4.87
2018-12-06T19:52:32.397Z,4.80
2018-12-06T19:55:01.242Z,4.60
2018-12-06T19:57:29.775Z,4.40
2018-12-06T19:59:58.468Z,5.00
2018-12-06T20:02:27.220Z,4.70
2018-12-06T20:04:56.052Z,4.60
2018-12-06T20:07:24.882Z,4.20
2018-12-06T20:09:53.716Z,4.50
2018-12-06T20:12:22.492Z,3.90
2018-12-06T20:14:51.188Z,4.40
2018-12-06T20:17:19.998Z,4.30
2018-12-06T20:19:48.792Z,4.33
2018-12-06T20:22:17.476Z,4.70
2018-12-06T20:24:46.177Z,3.87
2018-12-06T20:27:14.922Z,3.77
2018-12-06T20:29:43.677Z,4.30
2018-12-06T20:32:14.900Z,4.00
2018-12-06T20:34:43.365Z,3.90
2018-12-06T20:37:12.543Z,3.70
2018-12-06T20:39:41.272Z,4.13
2018-12-06T20:42:09.831Z,3.95
2018-12-06T20:44:38.512Z,4.07
2018-12-06T20:47:07.265Z,3.77
2018-12-06T20:49:36.064Z,3.50
2018-12-06T20:52:04.650Z,4.23
2018-12-06T20:54:33.119Z,3.90
2018-12-06T20:57:01.732Z,3.77
2018-12-06T20:59:30.496Z,3.70
2018-12-06T21:01:59.205Z,3.37
2018-12-06T21:04:27.898Z,3.37
2018-12-06T21:06:56.785Z,3.20
2018-12-06T21:09:25.372Z,3.53
2018-12-06T21:11:53.985Z,2.93
2018-12-06T21:14:22.567Z,3.40
2018-12-06T21:16:51.271Z,3.47
2018-12-06T21:19:19.972Z,3.13
2018-12-06T21:21:48.766Z,4.37
2018-12-06T21:24:17.308Z,3.60
2018-12-06T21:26:45.791Z,4.47
2018-12-06T21:29:14.389Z,3.53
2018-12-06T21:31:45.084Z,3.20
2018-12-06T21:34:13.840Z,3.37
2018-12-06T21:36:44.624Z,3.47
2018-12-06T21:39:13.444Z,4.17
2018-12-06T21:41:42.248Z,2.73
2018-12-06T21:44:10.992Z,2.73
2018-12-06T21:46:39.785Z,2.70
2018-12-06T21:49:08.448Z,2.87
2018-12-06T21:51:36.892Z,2.80
2018-12-06T21:54:05.444Z,3.50
2018-12-06T21:56:33.956Z,2.43
2018-12-06T21:59:02.508Z,2.40
2018-12-06T22:01:31.171Z,2.37
2018-12-06T22:03:59.944Z,2.30
2018-12-06T22:06:29.463Z,2.57
2018-12-06T22:08:58.227Z,2.77
2018-12-06T22:11:27.057Z,2.73
2018-12-06T22:13:55.868Z,2.10
2018-12-06T22:16:24.512Z,3.13
2018-12-06T22:18:54.142Z,2.87
2018-12-06T22:21:22.644Z,3.10
2018-12-06T22:23:51.103Z,2.83
2018-12-06T22:26:19.965Z,2.83
2018-12-06T22:28:48.772Z,3.30
2018-12-06T22:31:17.533Z,2.80
2018-12-06T22:33:46.283Z,2.93
2018-12-06T22:36:14.972Z,3.97
2018-12-06T22:38:43.735Z,3.60
2018-12-06T22:41:12.491Z,3.53
2018-12-06T22:43:41.040Z,3.90
2018-12-06T22:46:09.776Z,3.70
2018-12-06T22:48:38.524Z,3.13
2018-12-06T22:51:07.091Z,3.60
2018-12-06T22:53:35.808Z,4.03
2018-12-06T22:56:04.645Z,3.83
2018-12-06T22:58:33.291Z,4.27
2018-12-06T23:01:04.445Z,4.37
2018-12-06T23:03:35.182Z,4.30
2018-12-06T23:06:04.090Z,4.87
2018-12-06T23:08:33.684Z,5.03
2018-12-06T23:11:02.384Z,5.17
2018-12-06T23:13:31.200Z,5.50
2018-12-06T23:16:00.624Z,4.95
2018-12-06T23:18:29.372Z,4.50
2018-12-06T23:20:58.011Z,3.93
2018-12-06T23:23:26.768Z,3.57
2018-12-06T23:25:55.557Z,4.37
2018-12-06T23:28:24.103Z,4.73
2018-12-06T23:30:52.824Z,4.83
2018-12-06T23:33:22.326Z,4.67
2018-12-06T23:35:51.017Z,5.73
2018-12-06T23:38:19.790Z,5.27
2018-12-06T23:40:48.348Z,5.20
2018-12-06T23:43:17.082Z,4.33
2018-12-06T23:45:45.837Z,4.13
2018-12-06T23:48:15.753Z,4.70
2018-12-06T23:50:44.496Z,3.60
2018-12-06T23:53:13.064Z,4.00
2018-12-06T23:55:41.504Z,3.90
2018-12-06T23:58:10.172Z,4.20
